Concord, TX (77850)

4:03 AM CDT on May 26, 2017 (GMT -0500)
2.3 Miles SSE of Centerville, TX | | Change Station

Elev 430 ft 31.23 °N, 95.97 °W | Updated 2 minutes ago

Overcast
Overcast
73.1 °F
Feels Like 72 °F
N
7.0
Wind Variable Wind from SSE
Gusts 7.0 mph

Today
High -- | Low -- °F
--% Chance of Precip.
Yesterday
High -- | Low -- °F
Precip. -- in
Pressure 29.76 in
Visibility 10.0 miles
Clouds Overcast 1800 ft
Heat Index 72 °F
Dew Point 69 °F
Humidity 87%
Rainfall 0.00 in
Snow Depth Not available.
6:22 AM 8:20 PM
New Moon, 0% visible
METAR KLXY 260855Z AUTO 18014G22KT 10SM OVC018 23/20 A2976 RMK AO2 T02260198
Pressure 29.76 in
Visibility 10.0 miles
Clouds Overcast 1800 ft
Heat Index 72 °F
Dew Point 69 °F
Humidity 87%
Rainfall 0.00 in
Snow Depth Not available.
6:22 AM 8:20 PM
New Moon, 0% visible
METAR KLXY 260855Z AUTO 18014G22KT 10SM OVC018 23/20 A2976 RMK AO2 T02260198

Get Severe Weather Alerts

Thanks for signing up!

Be on the lookout for a verification email in your inbox.

You'll start receiving the daily forecast at 6 AM.

×

10-Day Weather Forecast

Almanac

Astronomy

May. 26, 2017 Rise Set
Actual Time
Civil Twilight
Nautical Twilight
Astronomical Twilight
Moon
Length of Visible Light
Length of Day
Tomorrow will be .
, % of the Moon is Illuminated

Today's Extremes

State Highs State Lows

Community

WunderPhotos

Category 6

Welcome to Category 6. This is the collective home for Weather Underground's featured writeups by Dr. Jeff Masters (right), Bob Henson (left), Chris Burt, and other regular contributors.

Nearby

Air Quality

  Air Quality AQ Index Pollutant
Not available.

Snow Depth

Station Depth Elevation

Earthquake Activity

City Distance Mag. Time & Date
Minimum magnitude displayed is 2.5.

Coastal Water Temperatures

Place Temperature

Stations

Nearby Weather Stations

Station Location Temp. Windchill Dew Point Humidity Wind Precip. Elev Updated Type
                   

Watches & Warnings

There are currently no watches in effect.